sensor_id;sensor_type;location;lat;lon;timestamp;P1;durP1;ratioP1;P2;durP2;ratioP2
18159;SDS011;9205;52.032;4.314;2024-02-21T00:02:24;37.27;;;35.27;;
18159;SDS011;9205;52.032;4.314;2024-02-21T00:04:51;39.03;;;37.03;;
18159;SDS011;9205;52.032;4.314;2024-02-21T00:07:18;38.73;;;36.73;;
18159;SDS011;9205;52.032;4.314;2024-02-21T00:09:45;38.90;;;36.80;;
18159;SDS011;9205;52.032;4.314;2024-02-21T00:12:12;39.83;;;37.80;;
18159;SDS011;9205;52.032;4.314;2024-02-21T00:14:40;40.13;;;38.03;;
18159;SDS011;9205;52.032;4.314;2024-02-21T00:17:07;39.73;;;37.17;;
18159;SDS011;9205;52.032;4.314;2024-02-21T00:19:36;36.73;;;34.83;;
18159;SDS011;9205;52.032;4.314;2024-02-21T00:22:03;39.03;;;36.80;;
18159;SDS011;9205;52.032;4.314;2024-02-21T00:24:30;37.80;;;35.90;;
18159;SDS011;9205;52.032;4.314;2024-02-21T00:26:58;40.97;;;38.53;;
18159;SDS011;9205;52.032;4.314;2024-02-21T00:29:25;41.90;;;38.40;;
18159;SDS011;9205;52.032;4.314;2024-02-21T00:31:52;37.50;;;35.60;;
18159;SDS011;9205;52.032;4.314;2024-02-21T00:34:19;39.47;;;36.83;;
18159;SDS011;9205;52.032;4.314;2024-02-21T00:36:48;37.70;;;35.80;;
18159;SDS011;9205;52.032;4.314;2024-02-21T00:39:16;41.17;;;38.40;;
18159;SDS011;9205;52.032;4.314;2024-02-21T00:41:43;38.90;;;36.43;;
18159;SDS011;9205;52.032;4.314;2024-02-21T00:44:10;36.67;;;34.83;;
18159;SDS011;9205;52.032;4.314;2024-02-21T00:46:37;36.67;;;34.83;;
18159;SDS011;9205;52.032;4.314;2024-02-21T00:49:04;39.40;;;36.93;;
18159;SDS011;9205;52.032;4.314;2024-02-21T00:51:33;39.87;;;37.87;;
18159;SDS011;9205;52.032;4.314;2024-02-21T00:54:01;38.83;;;36.87;;
18159;SDS011;9205;52.032;4.314;2024-02-21T00:56:28;38.93;;;36.83;;
18159;SDS011;9205;52.032;4.314;2024-02-21T00:58:56;37.77;;;35.87;;
18159;SDS011;9205;52.032;4.314;2024-02-21T01:01:23;36.63;;;34.80;;
18159;SDS011;9205;52.032;4.314;2024-02-21T01:03:51;38.00;;;36.00;;
18159;SDS011;9205;52.032;4.314;2024-02-21T01:06:19;43.07;;;38.57;;
18159;SDS011;9205;52.032;4.314;2024-02-21T01:08:46;39.00;;;37.00;;
18159;SDS011;9205;52.032;4.314;2024-02-21T01:11:15;40.17;;;37.97;;
18159;SDS011;9205;52.032;4.314;2024-02-21T01:13:43;38.67;;;36.60;;
18159;SDS011;9205;52.032;4.314;2024-02-21T01:16:10;38.53;;;36.53;;
18159;SDS011;9205;52.032;4.314;2024-02-21T01:18:37;37.37;;;35.47;;
18159;SDS011;9205;52.032;4.314;2024-02-21T01:21:05;38.63;;;36.63;;
18159;SDS011;9205;52.032;4.314;2024-02-21T01:23:33;38.90;;;36.90;;
18159;SDS011;9205;52.032;4.314;2024-02-21T01:26:00;38.07;;;36.10;;
18159;SDS011;9205;52.032;4.314;2024-02-21T01:28:29;37.63;;;35.70;;
18159;SDS011;9205;52.032;4.314;2024-02-21T01:30:56;39.30;;;37.20;;
18159;SDS011;9205;52.032;4.314;2024-02-21T01:33:24;38.50;;;36.37;;
18159;SDS011;9205;52.032;4.314;2024-02-21T01:35:51;38.07;;;36.07;;
18159;SDS011;9205;52.032;4.314;2024-02-21T01:38:18;38.60;;;36.30;;
18159;SDS011;9205;52.032;4.314;2024-02-21T01:40:46;39.60;;;36.93;;
18159;SDS011;9205;52.032;4.314;2024-02-21T01:43:16;38.10;;;36.10;;
18159;SDS011;9205;52.032;4.314;2024-02-21T01:45:48;37.83;;;35.30;;
18159;SDS011;9205;52.032;4.314;2024-02-21T01:48:17;36.80;;;34.90;;
18159;SDS011;9205;52.032;4.314;2024-02-21T01:50:45;36.63;;;34.73;;
18159;SDS011;9205;52.032;4.314;2024-02-21T01:53:13;37.53;;;35.37;;
18159;SDS011;9205;52.032;4.314;2024-02-21T01:55:44;36.07;;;34.27;;
18159;SDS011;9205;52.032;4.314;2024-02-21T01:58:12;38.50;;;34.80;;
18159;SDS011;9205;52.032;4.314;2024-02-21T02:00:41;36.87;;;34.97;;
18159;SDS011;9205;52.032;4.314;2024-02-21T02:03:12;35.93;;;34.07;;
18159;SDS011;9205;52.032;4.314;2024-02-21T02:05:42;36.57;;;34.67;;
18159;SDS011;9205;52.032;4.314;2024-02-21T02:08:11;36.87;;;34.77;;
18159;SDS011;9205;52.032;4.314;2024-02-21T02:10:38;36.03;;;33.60;;
18159;SDS011;9205;52.032;4.314;2024-02-21T02:13:07;34.70;;;33.00;;
18159;SDS011;9205;52.032;4.314;2024-02-21T02:15:38;34.77;;;32.87;;
18159;SDS011;9205;52.032;4.314;2024-02-21T02:18:06;36.87;;;34.07;;
18159;SDS011;9205;52.032;4.314;2024-02-21T02:20:35;36.10;;;34.30;;
18159;SDS011;9205;52.032;4.314;2024-02-21T02:23:04;33.80;;;31.97;;
18159;SDS011;9205;52.032;4.314;2024-02-21T02:25:38;34.37;;;32.27;;
18159;SDS011;9205;52.032;4.314;2024-02-21T02:28:06;36.57;;;34.67;;
18159;SDS011;9205;52.032;4.314;2024-02-21T02:30:34;35.70;;;33.90;;
18159;SDS011;9205;52.032;4.314;2024-02-21T02:33:02;35.93;;;34.13;;
18159;SDS011;9205;52.032;4.314;2024-02-21T02:35:30;37.60;;;35.60;;
18159;SDS011;9205;52.032;4.314;2024-02-21T02:37:57;37.50;;;35.60;;
18159;SDS011;9205;52.032;4.314;2024-02-21T02:40:25;37.93;;;35.97;;
18159;SDS011;9205;52.032;4.314;2024-02-21T02:42:53;38.23;;;36.23;;
18159;SDS011;9205;52.032;4.314;2024-02-21T02:45:21;38.53;;;36.33;;
18159;SDS011;9205;52.032;4.314;2024-02-21T02:47:51;38.63;;;36.73;;
18159;SDS011;9205;52.032;4.314;2024-02-21T02:50:19;38.20;;;36.30;;
18159;SDS011;9205;52.032;4.314;2024-02-21T02:52:46;41.67;;;37.27;;
18159;SDS011;9205;52.032;4.314;2024-02-21T02:55:14;37.87;;;35.97;;
18159;SDS011;9205;52.032;4.314;2024-02-21T02:57:41;38.37;;;36.47;;
18159;SDS011;9205;52.032;4.314;2024-02-21T03:00:11;38.70;;;36.13;;
18159;SDS011;9205;52.032;4.314;2024-02-21T03:02:41;37.87;;;35.60;;
18159;SDS011;9205;52.032;4.314;2024-02-21T03:05:11;35.60;;;33.80;;
18159;SDS011;9205;52.032;4.314;2024-02-21T03:07:40;38.40;;;36.40;;
18159;SDS011;9205;52.032;4.314;2024-02-21T03:10:08;36.77;;;34.87;;
18159;SDS011;9205;52.032;4.314;2024-02-21T03:12:36;37.50;;;35.50;;
18159;SDS011;9205;52.032;4.314;2024-02-21T03:15:04;38.30;;;36.30;;
18159;SDS011;9205;52.032;4.314;2024-02-21T03:17:33;36.33;;;34.50;;
18159;SDS011;9205;52.032;4.314;2024-02-21T03:20:01;36.47;;;34.47;;
18159;SDS011;9205;52.032;4.314;2024-02-21T03:22:30;36.80;;;34.70;;
18159;SDS011;9205;52.032;4.314;2024-02-21T03:24:57;35.23;;;33.43;;
18159;SDS011;9205;52.032;4.314;2024-02-21T03:27:24;35.53;;;33.73;;
18159;SDS011;9205;52.032;4.314;2024-02-21T03:29:52;37.37;;;35.47;;
18159;SDS011;9205;52.032;4.314;2024-02-21T03:32:19;36.07;;;34.17;;
18159;SDS011;9205;52.032;4.314;2024-02-21T03:34:47;35.40;;;33.60;;
18159;SDS011;9205;52.032;4.314;2024-02-21T03:37:14;38.87;;;36.87;;
18159;SDS011;9205;52.032;4.314;2024-02-21T03:39:42;39.00;;;36.90;;
18159;SDS011;9205;52.032;4.314;2024-02-21T03:42:09;39.67;;;37.60;;
18159;SDS011;9205;52.032;4.314;2024-02-21T03:44:36;38.73;;;36.63;;
18159;SDS011;9205;52.032;4.314;2024-02-21T03:47:04;38.07;;;36.13;;
18159;SDS011;9205;52.032;4.314;2024-02-21T03:49:31;39.37;;;37.37;;
18159;SDS011;9205;52.032;4.314;2024-02-21T03:51:59;37.57;;;35.67;;
18159;SDS011;9205;52.032;4.314;2024-02-21T03:54:27;39.40;;;37.40;;
18159;SDS011;9205;52.032;4.314;2024-02-21T03:56:54;39.00;;;37.00;;
18159;SDS011;9205;52.032;4.314;2024-02-21T03:59:22;38.40;;;36.40;;
18159;SDS011;9205;52.032;4.314;2024-02-21T04:01:51;40.33;;;37.80;;
18159;SDS011;9205;52.032;4.314;2024-02-21T04:04:18;37.10;;;35.20;;
18159;SDS011;9205;52.032;4.314;2024-02-21T04:06:46;40.67;;;38.57;;
18159;SDS011;9205;52.032;4.314;2024-02-21T04:09:15;40.20;;;38.10;;
18159;SDS011;9205;52.032;4.314;2024-02-21T04:11:42;38.83;;;36.83;;
18159;SDS011;9205;52.032;4.314;2024-02-21T04:14:09;40.73;;;38.63;;
18159;SDS011;9205;52.032;4.314;2024-02-21T04:16:37;38.73;;;36.73;;
18159;SDS011;9205;52.032;4.314;2024-02-21T04:19:05;38.47;;;36.47;;
18159;SDS011;9205;52.032;4.314;2024-02-21T04:21:32;40.40;;;38.30;;
18159;SDS011;9205;52.032;4.314;2024-02-21T04:23:59;39.57;;;36.93;;
18159;SDS011;9205;52.032;4.314;2024-02-21T04:26:28;39.30;;;37.10;;
18159;SDS011;9205;52.032;4.314;2024-02-21T04:28:55;37.67;;;35.73;;
18159;SDS011;9205;52.032;4.314;2024-02-21T04:31:22;38.80;;;36.80;;
18159;SDS011;9205;52.032;4.314;2024-02-21T04:33:49;38.10;;;36.10;;
18159;SDS011;9205;52.032;4.314;2024-02-21T04:36:17;37.80;;;35.90;;
18159;SDS011;9205;52.032;4.314;2024-02-21T04:38:44;35.90;;;34.10;;
18159;SDS011;9205;52.032;4.314;2024-02-21T04:41:12;36.77;;;34.87;;
18159;SDS011;9205;52.032;4.314;2024-02-21T04:43:40;37.97;;;35.97;;
18159;SDS011;9205;52.032;4.314;2024-02-21T04:46:07;36.43;;;34.63;;
18159;SDS011;9205;52.032;4.314;2024-02-21T04:48:35;37.33;;;35.43;;
18159;SDS011;9205;52.032;4.314;2024-02-21T04:51:02;37.57;;;35.63;;
18159;SDS011;9205;52.032;4.314;2024-02-21T04:53:30;36.20;;;34.37;;
18159;SDS011;9205;52.032;4.314;2024-02-21T04:55:58;35.70;;;33.80;;
18159;SDS011;9205;52.032;4.314;2024-02-21T04:58:25;39.60;;;37.43;;
18159;SDS011;9205;52.032;4.314;2024-02-21T05:00:54;34.80;;;32.90;;
18159;SDS011;9205;52.032;4.314;2024-02-21T05:03:22;34.13;;;32.43;;
18159;SDS011;9205;52.032;4.314;2024-02-21T05:05:49;36.97;;;34.77;;
18159;SDS011;9205;52.032;4.314;2024-02-21T05:08:16;36.10;;;33.90;;
18159;SDS011;9205;52.032;4.314;2024-02-21T05:10:43;36.10;;;34.20;;
18159;SDS011;9205;52.032;4.314;2024-02-21T05:13:10;34.10;;;32.40;;
18159;SDS011;9205;52.032;4.314;2024-02-21T05:15:37;35.60;;;33.80;;
18159;SDS011;9205;52.032;4.314;2024-02-21T05:18:06;35.13;;;33.33;;
18159;SDS011;9205;52.032;4.314;2024-02-21T05:20:33;35.60;;;33.37;;
18159;SDS011;9205;52.032;4.314;2024-02-21T05:23:01;35.10;;;33.20;;
18159;SDS011;9205;52.032;4.314;2024-02-21T05:25:28;36.30;;;34.40;;
18159;SDS011;9205;52.032;4.314;2024-02-21T05:27:55;35.40;;;33.60;;
18159;SDS011;9205;52.032;4.314;2024-02-21T05:30:27;36.07;;;34.27;;
18159;SDS011;9205;52.032;4.314;2024-02-21T05:32:54;35.53;;;33.73;;
18159;SDS011;9205;52.032;4.314;2024-02-21T05:35:26;37.20;;;35.30;;
18159;SDS011;9205;52.032;4.314;2024-02-21T05:37:53;34.63;;;32.83;;
18159;SDS011;9205;52.032;4.314;2024-02-21T05:40:20;37.10;;;35.00;;
18159;SDS011;9205;52.032;4.314;2024-02-21T05:42:48;35.00;;;33.20;;
18159;SDS011;9205;52.032;4.314;2024-02-21T05:45:16;35.07;;;33.07;;
18159;SDS011;9205;52.032;4.314;2024-02-21T05:47:43;33.00;;;31.30;;
18159;SDS011;9205;52.032;4.314;2024-02-21T05:50:10;34.30;;;32.57;;
18159;SDS011;9205;52.032;4.314;2024-02-21T05:52:39;36.80;;;34.70;;
18159;SDS011;9205;52.032;4.314;2024-02-21T05:55:06;36.43;;;34.47;;
18159;SDS011;9205;52.032;4.314;2024-02-21T05:57:34;35.17;;;33.37;;
18159;SDS011;9205;52.032;4.314;2024-02-21T06:00:03;33.77;;;32.07;;
18159;SDS011;9205;52.032;4.314;2024-02-21T06:02:37;34.00;;;32.20;;
18159;SDS011;9205;52.032;4.314;2024-02-21T06:05:05;36.50;;;34.60;;
18159;SDS011;9205;52.032;4.314;2024-02-21T06:07:34;35.03;;;33.13;;
18159;SDS011;9205;52.032;4.314;2024-02-21T06:10:03;34.00;;;32.30;;
18159;SDS011;9205;52.032;4.314;2024-02-21T06:12:31;34.17;;;32.37;;
18159;SDS011;9205;52.032;4.314;2024-02-21T06:14:58;37.40;;;35.50;;
18159;SDS011;9205;52.032;4.314;2024-02-21T06:17:26;32.77;;;31.07;;
18159;SDS011;9205;52.032;4.314;2024-02-21T06:19:53;36.40;;;34.30;;
18159;SDS011;9205;52.032;4.314;2024-02-21T06:22:20;35.77;;;33.97;;
18159;SDS011;9205;52.032;4.314;2024-02-21T06:24:47;32.93;;;31.23;;
18159;SDS011;9205;52.032;4.314;2024-02-21T06:27:16;32.73;;;31.03;;
18159;SDS011;9205;52.032;4.314;2024-02-21T06:29:43;32.27;;;30.67;;
18159;SDS011;9205;52.032;4.314;2024-02-21T06:32:10;35.40;;;33.57;;
18159;SDS011;9205;52.032;4.314;2024-02-21T06:34:37;35.27;;;33.37;;
18159;SDS011;9205;52.032;4.314;2024-02-21T06:37:04;35.20;;;33.40;;
18159;SDS011;9205;52.032;4.314;2024-02-21T06:39:31;35.37;;;33.17;;
18159;SDS011;9205;52.032;4.314;2024-02-21T06:41:59;33.87;;;32.00;;
18159;SDS011;9205;52.032;4.314;2024-02-21T06:44:27;36.90;;;34.47;;
18159;SDS011;9205;52.032;4.314;2024-02-21T06:46:54;32.00;;;30.03;;
18159;SDS011;9205;52.032;4.314;2024-02-21T06:49:21;33.50;;;31.53;;
18159;SDS011;9205;52.032;4.314;2024-02-21T06:51:49;33.97;;;31.87;;
18159;SDS011;9205;52.032;4.314;2024-02-21T06:54:16;32.40;;;30.70;;
18159;SDS011;9205;52.032;4.314;2024-02-21T06:56:43;32.47;;;30.23;;
18159;SDS011;9205;52.032;4.314;2024-02-21T06:59:10;31.80;;;29.90;;
18159;SDS011;9205;52.032;4.314;2024-02-21T07:01:45;31.40;;;29.30;;
18159;SDS011;9205;52.032;4.314;2024-02-21T07:04:13;32.67;;;30.67;;
18159;SDS011;9205;52.032;4.314;2024-02-21T07:06:40;31.70;;;30.10;;
18159;SDS011;9205;52.032;4.314;2024-02-21T07:09:07;33.33;;;31.43;;
18159;SDS011;9205;52.032;4.314;2024-02-21T07:11:35;30.60;;;28.43;;
18159;SDS011;9205;52.032;4.314;2024-02-21T07:14:02;32.87;;;30.97;;
18159;SDS011;9205;52.032;4.314;2024-02-21T07:16:29;30.50;;;28.90;;
18159;SDS011;9205;52.032;4.314;2024-02-21T07:19:01;31.77;;;29.87;;
18159;SDS011;9205;52.032;4.314;2024-02-21T07:21:31;32.47;;;30.43;;
18159;SDS011;9205;52.032;4.314;2024-02-21T07:23:59;31.83;;;29.87;;
18159;SDS011;9205;52.032;4.314;2024-02-21T07:26:26;32.90;;;31.10;;
18159;SDS011;9205;52.032;4.314;2024-02-21T07:28:53;30.93;;;29.33;;
18159;SDS011;9205;52.032;4.314;2024-02-21T07:31:20;29.90;;;28.30;;
18159;SDS011;9205;52.032;4.314;2024-02-21T07:33:47;28.73;;;27.23;;
18159;SDS011;9205;52.032;4.314;2024-02-21T07:36:23;29.60;;;27.90;;
18159;SDS011;9205;52.032;4.314;2024-02-21T07:38:55;33.70;;;31.13;;
18159;SDS011;9205;52.032;4.314;2024-02-21T07:41:22;33.43;;;31.60;;
18159;SDS011;9205;52.032;4.314;2024-02-21T07:43:49;32.63;;;30.93;;
18159;SDS011;9205;52.032;4.314;2024-02-21T07:46:17;34.03;;;32.03;;
18159;SDS011;9205;52.032;4.314;2024-02-21T07:48:44;33.27;;;31.20;;
18159;SDS011;9205;52.032;4.314;2024-02-21T07:51:12;31.37;;;29.33;;
18159;SDS011;9205;52.032;4.314;2024-02-21T07:53:41;32.07;;;30.07;;
18159;SDS011;9205;52.032;4.314;2024-02-21T07:56:10;33.33;;;31.43;;
18159;SDS011;9205;52.032;4.314;2024-02-21T07:58:37;34.50;;;32.60;;
18159;SDS011;9205;52.032;4.314;2024-02-21T08:01:04;34.70;;;32.20;;
18159;SDS011;9205;52.032;4.314;2024-02-21T08:03:31;33.57;;;31.50;;
18159;SDS011;9205;52.032;4.314;2024-02-21T08:05:58;32.90;;;31.10;;
18159;SDS011;9205;52.032;4.314;2024-02-21T08:08:26;33.37;;;31.57;;
18159;SDS011;9205;52.032;4.314;2024-02-21T08:10:54;36.47;;;33.83;;
18159;SDS011;9205;52.032;4.314;2024-02-21T08:13:21;34.13;;;32.23;;
18159;SDS011;9205;52.032;4.314;2024-02-21T08:15:49;35.00;;;33.10;;
18159;SDS011;9205;52.032;4.314;2024-02-21T08:18:16;36.27;;;34.30;;
18159;SDS011;9205;52.032;4.314;2024-02-21T08:20:43;36.97;;;34.90;;
18159;SDS011;9205;52.032;4.314;2024-02-21T08:23:10;38.27;;;34.47;;
18159;SDS011;9205;52.032;4.314;2024-02-21T08:25:37;36.70;;;34.70;;
18159;SDS011;9205;52.032;4.314;2024-02-21T08:28:06;35.70;;;33.80;;
18159;SDS011;9205;52.032;4.314;2024-02-21T08:30:33;35.10;;;33.20;;
18159;SDS011;9205;52.032;4.314;2024-02-21T08:33:01;35.37;;;33.40;;
18159;SDS011;9205;52.032;4.314;2024-02-21T08:35:29;34.90;;;32.80;;
18159;SDS011;9205;52.032;4.314;2024-02-21T08:37:56;36.07;;;34.03;;
18159;SDS011;9205;52.032;4.314;2024-02-21T08:40:23;32.93;;;31.00;;
18159;SDS011;9205;52.032;4.314;2024-02-21T08:42:50;36.00;;;34.00;;
18159;SDS011;9205;52.032;4.314;2024-02-21T08:45:20;35.43;;;33.43;;
18159;SDS011;9205;52.032;4.314;2024-02-21T08:47:47;35.13;;;33.23;;
18159;SDS011;9205;52.032;4.314;2024-02-21T08:50:14;35.27;;;33.33;;
18159;SDS011;9205;52.032;4.314;2024-02-21T08:52:41;35.77;;;33.50;;
18159;SDS011;9205;52.032;4.314;2024-02-21T08:55:09;32.70;;;30.90;;
18159;SDS011;9205;52.032;4.314;2024-02-21T08:57:36;37.00;;;34.27;;
18159;SDS011;9205;52.032;4.314;2024-02-21T09:00:04;35.43;;;33.53;;
18159;SDS011;9205;52.032;4.314;2024-02-21T09:02:37;35.00;;;32.90;;
18159;SDS011;9205;52.032;4.314;2024-02-21T09:05:08;36.37;;;34.47;;
18159;SDS011;9205;52.032;4.314;2024-02-21T09:07:35;36.93;;;34.83;;
18159;SDS011;9205;52.032;4.314;2024-02-21T09:10:02;36.87;;;34.80;;
18159;SDS011;9205;52.032;4.314;2024-02-21T09:12:30;35.37;;;33.47;;
18159;SDS011;9205;52.032;4.314;2024-02-21T09:14:57;37.47;;;35.47;;
18159;SDS011;9205;52.032;4.314;2024-02-21T09:17:25;35.80;;;33.90;;
18159;SDS011;9205;52.032;4.314;2024-02-21T09:19:55;37.80;;;35.70;;
18159;SDS011;9205;52.032;4.314;2024-02-21T09:22:24;35.50;;;33.50;;
18159;SDS011;9205;52.032;4.314;2024-02-21T09:24:51;35.73;;;33.80;;
18159;SDS011;9205;52.032;4.314;2024-02-21T09:27:19;37.43;;;35.43;;
18159;SDS011;9205;52.032;4.314;2024-02-21T09:29:47;36.77;;;34.87;;
18159;SDS011;9205;52.032;4.314;2024-02-21T09:32:14;37.40;;;35.30;;
18159;SDS011;9205;52.032;4.314;2024-02-21T09:34:41;36.20;;;34.20;;
18159;SDS011;9205;52.032;4.314;2024-02-21T09:37:10;38.13;;;35.90;;
18159;SDS011;9205;52.032;4.314;2024-02-21T09:39:37;36.30;;;34.20;;
18159;SDS011;9205;52.032;4.314;2024-02-21T09:42:05;38.37;;;36.27;;
18159;SDS011;9205;52.032;4.314;2024-02-21T09:44:36;38.13;;;35.73;;
18159;SDS011;9205;52.032;4.314;2024-02-21T09:47:06;37.90;;;35.80;;
18159;SDS011;9205;52.032;4.314;2024-02-21T09:49:38;36.37;;;34.40;;
18159;SDS011;9205;52.032;4.314;2024-02-21T09:52:11;38.57;;;36.47;;
18159;SDS011;9205;52.032;4.314;2024-02-21T09:54:41;36.90;;;34.90;;
18159;SDS011;9205;52.032;4.314;2024-02-21T09:57:10;36.23;;;33.47;;
18159;SDS011;9205;52.032;4.314;2024-02-21T09:59:38;34.73;;;32.40;;
18159;SDS011;9205;52.032;4.314;2024-02-21T10:02:07;38.03;;;35.87;;
18159;SDS011;9205;52.032;4.314;2024-02-21T10:04:34;35.80;;;33.83;;
18159;SDS011;9205;52.032;4.314;2024-02-21T10:07:01;36.13;;;34.23;;
18159;SDS011;9205;52.032;4.314;2024-02-21T10:09:30;37.20;;;35.00;;
18159;SDS011;9205;52.032;4.314;2024-02-21T10:12:07;35.60;;;33.77;;
18159;SDS011;9205;52.032;4.314;2024-02-21T10:14:35;38.93;;;35.90;;
18159;SDS011;9205;52.032;4.314;2024-02-21T10:17:03;37.97;;;35.67;;
18159;SDS011;9205;52.032;4.314;2024-02-21T10:19:34;35.17;;;33.27;;
18159;SDS011;9205;52.032;4.314;2024-02-21T10:22:02;37.83;;;35.57;;
18159;SDS011;9205;52.032;4.314;2024-02-21T10:24:34;36.13;;;34.13;;
18159;SDS011;9205;52.032;4.314;2024-02-21T10:27:03;37.47;;;35.43;;
18159;SDS011;9205;52.032;4.314;2024-02-21T10:29:33;38.43;;;36.30;;
18159;SDS011;9205;52.032;4.314;2024-02-21T10:32:04;38.43;;;36.33;;
18159;SDS011;9205;52.032;4.314;2024-02-21T10:34:36;38.33;;;36.33;;
18159;SDS011;9205;52.032;4.314;2024-02-21T10:37:05;38.30;;;36.30;;
18159;SDS011;9205;52.032;4.314;2024-02-21T10:39:36;37.33;;;35.13;;
18159;SDS011;9205;52.032;4.314;2024-02-21T10:42:04;37.67;;;35.37;;
18159;SDS011;9205;52.032;4.314;2024-02-21T10:44:33;35.10;;;33.30;;
18159;SDS011;9205;52.032;4.314;2024-02-21T10:47:05;36.10;;;34.13;;
18159;SDS011;9205;52.032;4.314;2024-02-21T10:49:36;36.30;;;34.00;;
18159;SDS011;9205;52.032;4.314;2024-02-21T10:52:12;35.07;;;33.00;;
18159;SDS011;9205;52.032;4.314;2024-02-21T10:54:45;36.07;;;34.17;;
18159;SDS011;9205;52.032;4.314;2024-02-21T10:57:19;35.87;;;33.20;;
18159;SDS011;9205;52.032;4.314;2024-02-21T10:59:48;34.33;;;32.47;;
18159;SDS011;9205;52.032;4.314;2024-02-21T11:02:16;32.23;;;30.37;;
18159;SDS011;9205;52.032;4.314;2024-02-21T11:04:43;32.53;;;30.83;;
18159;SDS011;9205;52.032;4.314;2024-02-21T11:07:12;30.00;;;28.20;;
18159;SDS011;9205;52.032;4.314;2024-02-21T11:09:50;30.73;;;29.13;;
18159;SDS011;9205;52.032;4.314;2024-02-21T11:12:20;33.57;;;31.67;;
18159;SDS011;9205;52.032;4.314;2024-02-21T11:14:48;29.97;;;28.37;;
18159;SDS011;9205;52.032;4.314;2024-02-21T11:17:15;32.73;;;29.93;;
18159;SDS011;9205;52.032;4.314;2024-02-21T11:19:43;33.33;;;31.63;;
18159;SDS011;9205;52.032;4.314;2024-02-21T11:22:14;33.87;;;31.87;;
18159;SDS011;9205;52.032;4.314;2024-02-21T11:24:43;33.50;;;31.60;;
18159;SDS011;9205;52.032;4.314;2024-02-21T11:27:12;31.43;;;29.73;;
18159;SDS011;9205;52.032;4.314;2024-02-21T11:29:42;31.03;;;29.13;;
18159;SDS011;9205;52.032;4.314;2024-02-21T11:32:10;32.50;;;30.70;;
18159;SDS011;9205;52.032;4.314;2024-02-21T11:34:37;32.93;;;30.97;;
18159;SDS011;9205;52.032;4.314;2024-02-21T11:37:12;32.17;;;30.53;;
18159;SDS011;9205;52.032;4.314;2024-02-21T11:39:41;31.57;;;29.77;;
18159;SDS011;9205;52.032;4.314;2024-02-21T11:42:09;29.43;;;27.80;;
18159;SDS011;9205;52.032;4.314;2024-02-21T11:44:39;31.80;;;29.83;;
18159;SDS011;9205;52.032;4.314;2024-02-21T11:47:08;29.13;;;27.53;;
18159;SDS011;9205;52.032;4.314;2024-02-21T11:49:36;28.17;;;26.67;;
18159;SDS011;9205;52.032;4.314;2024-02-21T11:52:05;31.27;;;29.63;;
18159;SDS011;9205;52.032;4.314;2024-02-21T11:54:32;27.47;;;26.07;;
18159;SDS011;9205;52.032;4.314;2024-02-21T11:57:00;31.57;;;29.90;;
18159;SDS011;9205;52.032;4.314;2024-02-21T12:01:59;29.67;;;28.07;;
18159;SDS011;9205;52.032;4.314;2024-02-21T12:04:28;30.07;;;28.17;;
18159;SDS011;9205;52.032;4.314;2024-02-21T12:06:57;27.97;;;26.47;;
18159;SDS011;9205;52.032;4.314;2024-02-21T12:09:25;28.53;;;27.00;;
18159;SDS011;9205;52.032;4.314;2024-02-21T12:11:59;29.60;;;27.50;;
18159;SDS011;9205;52.032;4.314;2024-02-21T12:14:29;29.07;;;27.57;;
18159;SDS011;9205;52.032;4.314;2024-02-21T12:16:57;28.37;;;26.67;;
18159;SDS011;9205;52.032;4.314;2024-02-21T12:19:28;28.47;;;26.93;;
18159;SDS011;9205;52.032;4.314;2024-02-21T12:21:56;27.00;;;25.50;;
18159;SDS011;9205;52.032;4.314;2024-02-21T12:24:25;28.10;;;26.60;;
18159;SDS011;9205;52.032;4.314;2024-02-21T12:26:54;29.10;;;27.17;;
18159;SDS011;9205;52.032;4.314;2024-02-21T12:29:24;28.50;;;26.87;;
18159;SDS011;9205;52.032;4.314;2024-02-21T12:31:51;29.73;;;27.93;;
18159;SDS011;9205;52.032;4.314;2024-02-21T12:34:21;27.80;;;26.23;;
18159;SDS011;9205;52.032;4.314;2024-02-21T12:36:52;30.67;;;29.07;;
18159;SDS011;9205;52.032;4.314;2024-02-21T12:39:19;29.97;;;28.47;;
18159;SDS011;9205;52.032;4.314;2024-02-21T12:41:46;31.10;;;29.50;;
18159;SDS011;9205;52.032;4.314;2024-02-21T12:44:13;31.10;;;29.43;;
18159;SDS011;9205;52.032;4.314;2024-02-21T12:46:42;31.87;;;30.27;;
18159;SDS011;9205;52.032;4.314;2024-02-21T12:49:09;29.57;;;28.00;;
18159;SDS011;9205;52.032;4.314;2024-02-21T12:51:38;30.60;;;28.40;;
18159;SDS011;9205;52.032;4.314;2024-02-21T12:54:07;29.70;;;28.20;;
18159;SDS011;9205;52.032;4.314;2024-02-21T12:56:36;29.97;;;28.47;;
18159;SDS011;9205;52.032;4.314;2024-02-21T12:59:04;29.73;;;28.23;;
18159;SDS011;9205;52.032;4.314;2024-02-21T13:01:33;30.80;;;29.10;;
18159;SDS011;9205;52.032;4.314;2024-02-21T13:04:00;30.20;;;28.50;;
18159;SDS011;9205;52.032;4.314;2024-02-21T13:06:28;29.97;;;28.33;;
18159;SDS011;9205;52.032;4.314;2024-02-21T13:08:57;30.03;;;28.43;;
18159;SDS011;9205;52.032;4.314;2024-02-21T13:11:24;28.87;;;27.27;;
18159;SDS011;9205;52.032;4.314;2024-02-21T13:13:56;27.97;;;26.47;;
18159;SDS011;9205;52.032;4.314;2024-02-21T13:16:23;30.43;;;28.83;;
18159;SDS011;9205;52.032;4.314;2024-02-21T13:18:51;29.90;;;28.40;;
18159;SDS011;9205;52.032;4.314;2024-02-21T13:21:19;31.40;;;29.70;;
18159;SDS011;9205;52.032;4.314;2024-02-21T13:23:46;30.03;;;28.33;;
18159;SDS011;9205;52.032;4.314;2024-02-21T13:26:15;29.37;;;27.73;;
18159;SDS011;9205;52.032;4.314;2024-02-21T13:28:42;29.73;;;28.13;;
18159;SDS011;9205;52.032;4.314;2024-02-21T13:31:10;28.93;;;27.37;;
18159;SDS011;9205;52.032;4.314;2024-02-21T13:33:37;30.63;;;28.73;;
18159;SDS011;9205;52.032;4.314;2024-02-21T13:36:04;28.73;;;27.23;;
18159;SDS011;9205;52.032;4.314;2024-02-21T13:38:32;29.37;;;27.77;;
18159;SDS011;9205;52.032;4.314;2024-02-21T13:40:59;29.40;;;27.80;;
18159;SDS011;9205;52.032;4.314;2024-02-21T13:43:28;29.70;;;28.10;;
18159;SDS011;9205;52.032;4.314;2024-02-21T13:45:56;29.27;;;27.77;;
18159;SDS011;9205;52.032;4.314;2024-02-21T13:48:25;32.00;;;30.20;;
18159;SDS011;9205;52.032;4.314;2024-02-21T13:50:54;30.40;;;28.70;;
18159;SDS011;9205;52.032;4.314;2024-02-21T13:53:21;31.73;;;29.87;;
18159;SDS011;9205;52.032;4.314;2024-02-21T13:55:49;33.10;;;31.20;;
18159;SDS011;9205;52.032;4.314;2024-02-21T13:58:16;31.40;;;29.33;;
18159;SDS011;9205;52.032;4.314;2024-02-21T14:00:45;30.53;;;28.60;;
18159;SDS011;9205;52.032;4.314;2024-02-21T14:03:12;30.93;;;29.13;;
18159;SDS011;9205;52.032;4.314;2024-02-21T14:05:39;29.83;;;28.23;;
18159;SDS011;9205;52.032;4.314;2024-02-21T14:08:06;30.77;;;28.97;;
18159;SDS011;9205;52.032;4.314;2024-02-21T14:10:34;29.37;;;27.67;;
18159;SDS011;9205;52.032;4.314;2024-02-21T14:13:02;29.40;;;27.80;;
18159;SDS011;9205;52.032;4.314;2024-02-21T14:15:29;28.93;;;27.33;;
18159;SDS011;9205;52.032;4.314;2024-02-21T14:17:58;30.37;;;28.57;;
18159;SDS011;9205;52.032;4.314;2024-02-21T14:20:25;29.03;;;27.33;;
18159;SDS011;9205;52.032;4.314;2024-02-21T14:22:52;29.17;;;27.57;;
18159;SDS011;9205;52.032;4.314;2024-02-21T14:25:19;28.10;;;26.47;;
18159;SDS011;9205;52.032;4.314;2024-02-21T14:27:47;26.20;;;24.90;;
18159;SDS011;9205;52.032;4.314;2024-02-21T14:30:14;27.37;;;25.97;;
18159;SDS011;9205;52.032;4.314;2024-02-21T14:32:43;28.03;;;26.43;;
18159;SDS011;9205;52.032;4.314;2024-02-21T14:35:12;28.03;;;26.53;;
18159;SDS011;9205;52.032;4.314;2024-02-21T14:37:40;29.07;;;27.33;;
18159;SDS011;9205;52.032;4.314;2024-02-21T14:40:08;26.47;;;24.97;;
18159;SDS011;9205;52.032;4.314;2024-02-21T14:42:36;26.90;;;25.50;;